Terminal Aerodrome Forecast
Issued by NWS

Home | Current Version | Previous Version | Text Only | Print | Product List | Glossary On
Versions: 1 2 3 4 5 6 7 8 9 10 11 12 13 14 15 16 17 18 19 20 21 22 23
000
FTUS41 KRLX 201720
TAFCKB
TAF
KCKB 201720Z 2018/2118 29008KT P6SM BKN035
     FM210000 25004KT P6SM SCT060
     FM210500 00000KT 4SM BR SCT080
     FM210700 00000KT 1/4SM FG BKN001
     FM211300 00000KT 3SM BR SCT001 BKN060
     FM211400 00000KT P6SM BKN045=

USA.gov is the U.S. government's official web portal to all federal, state and local government web resources and services.